CheckWX is a tool to help pilots better visualize weather data.  It is not intended as a substitute for an official pre-flight weather briefing.

01:25:55 UTC

KMEM TAF
Memphis International Airport
Memphis, Tennessee, USA
KMEM 212325Z 2200/2306 04003KT P6SM FEW250 FM220900 00000KT P6SM BKN250 FM221500 15005KT P6SM OVC250 FM230000 14005KT P6SM OVC150 FM230500 14004KT P6SM OVC070

Jan-22@
00:00 UTC

Jan-22 @ 00:00 UTC

Jan-22@
09:00 UTC

Jan-22 @ 09:00 UTC

KMEM 212325Z 2200/2306 04003KT P6SM FEW250
Wind
  • 040° at 3 KTS
Cloud Levels
  • Few at 25,000' AGL

Jan-22@
09:00 UTC

Jan-22 @ 09:00 UTC

Jan-22@
15:00 UTC

Jan-22 @ 15:00 UTC

FM220900 00000KT P6SM BKN250

From

From Standard forecast or significant change

Cloud Levels
  • Broken at 25,000' AGL

Jan-22@
15:00 UTC

Jan-22 @ 15:00 UTC

Jan-23@
00:00 UTC

Jan-23 @ 00:00 UTC

FM221500 15005KT P6SM OVC250

From

From Standard forecast or significant change

Wind
  • 150° at 5 KTS
Cloud Levels
  • Overcast at 25,000' AGL

Jan-23@
00:00 UTC

Jan-23 @ 00:00 UTC

Jan-23@
05:00 UTC

Jan-23 @ 05:00 UTC

FM230000 14005KT P6SM OVC150

From

From Standard forecast or significant change

Wind
  • 140° at 5 KTS
Cloud Levels
  • Overcast at 15,000' AGL

Jan-23@
05:00 UTC

Jan-23 @ 05:00 UTC

Jan-23@
06:00 UTC

Jan-23 @ 06:00 UTC

FM230500 14004KT P6SM OVC070

From

From Standard forecast or significant change

Wind
  • 140° at 4 KTS
Cloud Levels
  • Overcast at 7,000' AGL